createdAt,value
2022-10-13T00:01:22.203Z,100.00
2022-10-13T00:03:49.713Z,100.00
2022-10-13T00:06:26.784Z,100.00
2022-10-13T00:08:54.505Z,100.00
2022-10-13T00:11:25.004Z,100.00
2022-10-13T00:13:55.209Z,100.00
2022-10-13T00:16:23.259Z,100.00
2022-10-13T00:18:50.592Z,100.00
2022-10-13T00:21:24.498Z,100.00
2022-10-13T00:23:53.431Z,100.00
2022-10-13T00:26:23.183Z,100.00
2022-10-13T00:28:52.778Z,100.00
2022-10-13T00:31:33.726Z,100.00
2022-10-13T00:34:02.306Z,100.00
2022-10-13T00:36:29.485Z,100.00
2022-10-13T00:38:57.522Z,100.00
2022-10-13T00:41:24.958Z,100.00
2022-10-13T00:43:55.106Z,100.00
2022-10-13T00:46:23.549Z,100.00
2022-10-13T00:49:03.908Z,100.00
2022-10-13T00:51:34.933Z,100.00
2022-10-13T00:54:05.853Z,100.00
2022-10-13T00:56:33.632Z,100.00
2022-10-13T00:59:01.550Z,100.00
2022-10-13T01:01:36.185Z,100.00
2022-10-13T01:04:03.302Z,100.00
2022-10-13T01:06:30.720Z,100.00
2022-10-13T01:08:57.958Z,100.00
2022-10-13T01:11:28.282Z,100.00
2022-10-13T01:14:26.555Z,100.00
2022-10-13T01:17:18.093Z,100.00
2022-10-13T01:19:45.168Z,100.00
2022-10-13T01:22:33.619Z,100.00
2022-10-13T01:25:28.040Z,100.00
2022-10-13T01:28:22.809Z,100.00
2022-10-13T01:31:17.318Z,100.00
2022-10-13T01:33:53.514Z,100.00
2022-10-13T01:36:47.357Z,100.00
2022-10-13T01:39:31.480Z,100.00
2022-10-13T01:42:11.611Z,100.00
2022-10-13T01:44:43.838Z,100.00
2022-10-13T01:47:15.494Z,100.00
2022-10-13T01:49:44.860Z,100.00
2022-10-13T01:52:20.560Z,100.00
2022-10-13T01:54:50.665Z,100.00
2022-10-13T01:57:35.689Z,100.00
2022-10-13T02:00:08.815Z,100.00
2022-10-13T02:03:05.089Z,100.00
2022-10-13T02:05:49.238Z,100.00
2022-10-13T02:08:33.003Z,100.00
2022-10-13T02:11:15.505Z,100.00
2022-10-13T02:13:48.360Z,100.00
2022-10-13T02:16:25.971Z,100.00
2022-10-13T02:18:53.458Z,100.00
2022-10-13T02:21:20.355Z,100.00
2022-10-13T02:23:47.890Z,100.00
2022-10-13T02:26:15.260Z,100.00
2022-10-13T02:28:42.820Z,100.00
2022-10-13T02:31:09.972Z,100.00
2022-10-13T02:33:37.136Z,100.00
2022-10-13T02:36:04.545Z,100.00
2022-10-13T02:38:32.195Z,100.00
2022-10-13T02:41:02.265Z,100.00
2022-10-13T02:43:29.774Z,100.00
2022-10-13T02:45:56.906Z,100.00
2022-10-13T02:48:24.031Z,100.00
2022-10-13T02:50:51.013Z,100.00
2022-10-13T02:53:18.673Z,100.00
2022-10-13T02:55:45.926Z,100.00
2022-10-13T02:58:13.023Z,100.00
2022-10-13T03:00:40.157Z,100.00
2022-10-13T03:03:07.707Z,100.00
2022-10-13T03:05:36.266Z,100.00
2022-10-13T03:08:03.569Z,100.00
2022-10-13T03:10:32.227Z,100.00
2022-10-13T03:12:59.694Z,100.00
2022-10-13T03:15:27.690Z,100.00
2022-10-13T03:17:59.676Z,100.00
2022-10-13T03:20:26.801Z,100.00
2022-10-13T03:22:54.015Z,100.00
2022-10-13T03:25:21.400Z,100.00
2022-10-13T03:27:48.473Z,100.00
2022-10-13T03:30:15.710Z,100.00
2022-10-13T03:32:44.538Z,100.00
2022-10-13T03:35:13.786Z,100.00
2022-10-13T03:37:40.882Z,100.00
2022-10-13T03:40:10.576Z,100.00
2022-10-13T03:42:38.167Z,100.00
2022-10-13T03:45:06.585Z,100.00
2022-10-13T03:47:37.567Z,100.00
2022-10-13T03:50:05.978Z,100.00
2022-10-13T03:52:33.613Z,100.00
2022-10-13T03:55:01.347Z,100.00
2022-10-13T03:57:28.576Z,100.00
2022-10-13T03:59:58.548Z,100.00
2022-10-13T04:02:27.675Z,100.00
2022-10-13T04:04:54.993Z,100.00
2022-10-13T04:07:22.335Z,100.00
2022-10-13T04:09:49.605Z,100.00
2022-10-13T04:12:20.601Z,100.00
2022-10-13T04:14:48.335Z,100.00
2022-10-13T04:17:15.500Z,100.00
2022-10-13T04:19:47.674Z,100.00
2022-10-13T04:22:14.783Z,100.00
2022-10-13T04:24:47.099Z,100.00
2022-10-13T04:27:16.892Z,100.00
2022-10-13T04:29:44.075Z,100.00
2022-10-13T04:32:12.095Z,100.00
2022-10-13T04:34:39.304Z,100.00
2022-10-13T04:37:06.618Z,100.00
2022-10-13T04:39:33.973Z,100.00
2022-10-13T04:42:01.506Z,100.00
2022-10-13T04:44:30.766Z,100.00
2022-10-13T04:47:01.673Z,100.00
2022-10-13T04:49:28.833Z,100.00
2022-10-13T04:51:58.461Z,100.00
2022-10-13T04:54:27.799Z,100.00
2022-10-13T04:56:55.102Z,100.00
2022-10-13T04:59:23.073Z,100.00
2022-10-13T05:01:52.623Z,100.00
2022-10-13T05:04:21.659Z,100.00
2022-10-13T05:07:16.017Z,100.00
2022-10-13T05:09:42.395Z,100.00
2022-10-13T05:12:13.359Z,100.00
2022-10-13T05:14:42.439Z,100.00
2022-10-13T05:17:09.996Z,100.00
2022-10-13T05:19:37.173Z,100.00
2022-10-13T05:22:04.280Z,100.00
2022-10-13T05:24:37.175Z,100.00
2022-10-13T05:27:10.325Z,100.00
2022-10-13T05:29:37.903Z,100.00
2022-10-13T05:32:06.398Z,100.00
2022-10-13T05:34:33.970Z,100.00
2022-10-13T05:37:02.133Z,100.00
2022-10-13T05:39:29.517Z,100.00
2022-10-13T05:41:56.661Z,100.00
2022-10-13T05:44:24.791Z,100.00
2022-10-13T05:46:56.235Z,100.00
2022-10-13T05:49:23.281Z,100.00
2022-10-13T05:52:00.545Z,100.00
2022-10-13T05:54:34.089Z,100.00
2022-10-13T05:57:11.958Z,100.00
2022-10-13T05:59:43.571Z,100.00
2022-10-13T06:02:14.619Z,100.00
2022-10-13T06:04:49.269Z,100.00
2022-10-13T06:07:16.824Z,100.00
2022-10-13T06:09:44.566Z,100.00
2022-10-13T06:12:11.798Z,100.00
2022-10-13T06:14:41.020Z,100.00
2022-10-13T06:17:13.051Z,100.00
2022-10-13T06:19:43.373Z,100.00
2022-10-13T06:22:10.526Z,100.00
2022-10-13T06:24:38.381Z,100.00
2022-10-13T06:27:09.347Z,100.00
2022-10-13T06:29:36.747Z,100.00
2022-10-13T06:32:04.462Z,100.00
2022-10-13T06:34:31.701Z,100.00
2022-10-13T06:36:59.018Z,100.00
2022-10-13T06:39:26.701Z,100.00
2022-10-13T06:41:55.565Z,100.00
2022-10-13T06:44:31.845Z,100.00
2022-10-13T06:47:03.433Z,100.00
2022-10-13T06:49:30.507Z,100.00
2022-10-13T06:51:57.872Z,100.00
2022-10-13T06:54:25.094Z,100.00
2022-10-13T06:56:52.309Z,100.00
2022-10-13T06:59:19.511Z,100.00
2022-10-13T07:01:48.897Z,100.00
2022-10-13T07:04:16.996Z,100.00
2022-10-13T07:06:44.098Z,100.00
2022-10-13T07:09:11.218Z,100.00
2022-10-13T07:11:39.363Z,100.00
2022-10-13T07:14:06.412Z,100.00
2022-10-13T07:16:33.498Z,100.00
2022-10-13T07:19:01.972Z,100.00
2022-10-13T07:21:30.554Z,100.00
2022-10-13T07:23:58.325Z,100.00
2022-10-13T07:26:25.806Z,100.00
2022-10-13T07:28:53.265Z,100.00
2022-10-13T07:31:21.625Z,100.00
2022-10-13T07:33:50.721Z,100.00
2022-10-13T07:36:20.203Z,100.00
2022-10-13T07:38:47.474Z,100.00
2022-10-13T07:41:15.338Z,100.00
2022-10-13T07:43:42.808Z,100.00
2022-10-13T07:46:13.597Z,100.00
2022-10-13T07:48:41.153Z,100.00
2022-10-13T07:51:12.214Z,100.00
2022-10-13T07:53:41.303Z,100.00
2022-10-13T07:56:12.010Z,100.00
2022-10-13T07:58:41.375Z,100.00
2022-10-13T08:01:09.465Z,100.00
2022-10-13T08:03:40.251Z,100.00
2022-10-13T08:06:09.610Z,100.00
2022-10-13T08:08:37.234Z,100.00
2022-10-13T08:11:14.633Z,100.00
2022-10-13T08:13:48.084Z,100.00
2022-10-13T08:16:20.314Z,100.00
2022-10-13T08:18:48.254Z,100.00
2022-10-13T08:21:57.075Z,100.00
2022-10-13T08:24:12.802Z,100.00
2022-10-13T08:26:40.362Z,100.00
2022-10-13T08:29:24.103Z,100.00
2022-10-13T08:31:53.182Z,100.00
2022-10-13T08:34:22.558Z,100.00
2022-10-13T08:36:53.740Z,100.00
2022-10-13T08:39:22.378Z,100.00
2022-10-13T08:41:49.840Z,100.00
2022-10-13T08:47:42.836Z,100.00
2022-10-13T08:50:23.701Z,100.00
2022-10-13T08:52:57.353Z,100.00
2022-10-13T08:55:32.841Z,100.00
2022-10-13T08:58:02.258Z,100.00
2022-10-13T09:00:30.598Z,100.00
2022-10-13T09:03:16.357Z,100.00
2022-10-13T09:05:53.500Z,100.00
2022-10-13T09:08:21.591Z,100.00
2022-10-13T09:10:50.519Z,100.00
2022-10-13T09:13:22.861Z,100.00
2022-10-13T09:15:50.921Z,100.00
2022-10-13T09:18:18.073Z,100.00
2022-10-13T09:20:45.345Z,100.00
2022-10-13T09:23:23.315Z,100.00
2022-10-13T09:25:52.902Z,100.00
2022-10-13T09:28:23.035Z,100.00
2022-10-13T09:31:02.366Z,100.00
2022-10-13T09:33:29.916Z,100.00
2022-10-13T09:35:56.930Z,100.00
2022-10-13T09:38:25.672Z,100.00
2022-10-13T09:41:05.799Z,100.00
2022-10-13T09:43:38.414Z,100.00
2022-10-13T09:46:18.908Z,100.00
2022-10-13T09:48:50.917Z,100.00
2022-10-13T09:51:31.111Z,100.00
2022-10-13T09:53:58.243Z,100.00
2022-10-13T09:56:51.978Z,100.00
2022-10-13T09:59:33.530Z,100.00
2022-10-13T10:02:28.804Z,100.00
2022-10-13T10:05:01.182Z,100.00
2022-10-13T10:07:32.023Z,100.00
2022-10-13T10:10:06.630Z,100.00
2022-10-13T10:12:40.319Z,100.00
2022-10-13T10:15:20.231Z,100.00
2022-10-13T10:18:04.270Z,100.00
2022-10-13T10:20:37.697Z,100.00
2022-10-13T10:23:23.528Z,100.00
2022-10-13T10:26:05.269Z,100.00
2022-10-13T10:29:02.446Z,100.00
2022-10-13T10:31:41.800Z,100.00
2022-10-13T10:34:34.044Z,100.00
2022-10-13T10:37:54.259Z,100.00
2022-10-13T10:40:50.004Z,100.00
2022-10-13T10:43:32.354Z,100.00
2022-10-13T10:46:00.636Z,100.00
2022-10-13T10:48:37.910Z,100.00
2022-10-13T10:51:12.495Z,100.00
2022-10-13T10:53:45.529Z,100.00
2022-10-13T10:56:34.802Z,100.00
2022-10-13T10:59:17.533Z,100.00
2022-10-13T11:02:09.063Z,100.00
2022-10-13T11:04:41.575Z,100.00
2022-10-13T16:24:37.939Z,74.31
2022-10-13T16:27:05.991Z,74.30
2022-10-13T16:29:34.206Z,74.60
2022-10-13T16:32:01.281Z,75.05
2022-10-13T16:34:28.481Z,75.30
2022-10-13T16:36:55.623Z,75.20
2022-10-13T16:39:24.558Z,75.20
2022-10-13T16:41:52.082Z,75.45
2022-10-13T16:44:25.192Z,75.56
2022-10-13T16:46:53.989Z,75.46
2022-10-13T16:49:20.988Z,75.65
2022-10-13T16:51:50.408Z,75.74
2022-10-13T16:54:18.587Z,75.52
2022-10-13T16:56:46.988Z,75.73
2022-10-13T16:59:17.191Z,75.88
2022-10-13T17:01:45.644Z,76.00
2022-10-13T17:04:14.808Z,75.76
2022-10-13T17:06:44.446Z,75.91
2022-10-13T17:09:11.661Z,76.40
2022-10-13T17:11:40.989Z,76.43
2022-10-13T17:14:10.080Z,76.15
2022-10-13T17:16:37.167Z,76.72
2022-10-13T17:19:04.249Z,76.22
2022-10-13T17:21:36.976Z,76.83
2022-10-13T17:24:05.920Z,76.81
2022-10-13T17:26:33.908Z,76.74
2022-10-13T17:29:01.070Z,77.15
2022-10-13T17:31:28.201Z,77.17
2022-10-13T17:33:55.314Z,76.95
2022-10-13T17:36:25.076Z,76.79
2022-10-13T17:38:53.879Z,77.00
2022-10-13T17:41:21.155Z,76.82
2022-10-13T17:43:51.343Z,77.26
2022-10-13T17:46:36.098Z,77.48
2022-10-13T17:49:04.750Z,77.01
2022-10-13T17:51:31.906Z,76.93
2022-10-13T17:54:00.126Z,76.98
2022-10-13T17:56:28.570Z,77.27
2022-10-13T17:58:56.110Z,77.10
2022-10-13T18:01:26.603Z,77.33
2022-10-13T18:03:56.549Z,76.57
2022-10-13T18:06:37.737Z,77.27
2022-10-13T18:09:13.761Z,77.33
2022-10-13T18:11:48.515Z,77.32
2022-10-13T18:14:17.172Z,77.51
2022-10-13T18:16:45.046Z,77.80
2022-10-13T18:19:13.560Z,77.34
2022-10-13T18:21:40.593Z,77.34
2022-10-13T18:24:09.570Z,77.67
2022-10-13T18:26:36.590Z,77.63
2022-10-13T18:29:06.179Z,77.42
2022-10-13T18:31:35.666Z,77.63
2022-10-13T18:34:08.877Z,77.47
2022-10-13T18:36:38.033Z,77.89
2022-10-13T18:39:18.671Z,77.75
2022-10-13T18:41:49.883Z,77.59
2022-10-13T18:44:17.395Z,77.55
2022-10-13T18:46:45.173Z,77.20
2022-10-13T18:49:15.146Z,77.48
2022-10-13T18:51:44.855Z,77.56
2022-10-13T18:54:12.005Z,77.58
2022-10-13T18:56:39.635Z,77.60
2022-10-13T18:59:07.917Z,77.57
2022-10-13T19:01:37.882Z,77.40
2022-10-13T19:04:06.056Z,77.71
2022-10-13T19:06:36.024Z,77.79
2022-10-13T19:09:06.267Z,77.54
2022-10-13T19:11:38.220Z,77.74
2022-10-13T19:14:07.325Z,77.29
2022-10-13T19:16:38.235Z,77.68
2022-10-13T19:19:05.525Z,77.66
2022-10-13T19:21:32.864Z,77.72
2022-10-13T19:24:00.128Z,78.00
2022-10-13T19:26:30.783Z,77.12
2022-10-13T19:29:01.646Z,78.31
2022-10-13T19:31:31.090Z,77.90
2022-10-13T19:33:59.417Z,78.79
2022-10-13T19:36:33.394Z,78.32
2022-10-13T19:39:03.410Z,78.11
2022-10-13T19:41:32.394Z,78.03
2022-10-13T19:44:00.550Z,78.52
2022-10-13T19:46:39.414Z,78.32
2022-10-13T19:49:06.835Z,78.71
2022-10-13T19:51:35.542Z,78.86
2022-10-13T19:54:02.625Z,78.99
2022-10-13T19:56:34.353Z,78.77
2022-10-13T19:59:02.417Z,78.66
2022-10-13T20:01:29.553Z,78.72
2022-10-13T20:03:57.671Z,78.50
2022-10-13T20:06:24.586Z,78.81
2022-10-13T20:08:51.743Z,78.32
2022-10-13T20:11:24.174Z,79.13
2022-10-13T20:13:53.034Z,78.60
2022-10-13T20:16:22.818Z,78.94
2022-10-13T20:18:54.404Z,78.54
2022-10-13T20:21:23.756Z,78.95
2022-10-13T20:23:51.121Z,78.55
2022-10-13T20:26:21.049Z,78.93
2022-10-13T20:28:50.558Z,78.90
2022-10-13T20:31:20.324Z,79.12
2022-10-13T20:33:49.506Z,78.94
2022-10-13T20:36:19.125Z,78.61
2022-10-13T20:38:47.562Z,78.88
2022-10-13T20:41:20.347Z,79.14
2022-10-13T20:43:48.870Z,78.67
2022-10-13T20:46:17.486Z,78.74
2022-10-13T20:49:09.284Z,79.17
2022-10-13T20:51:31.757Z,78.68
2022-10-13T20:53:58.767Z,78.91
2022-10-13T20:56:27.085Z,78.78
2022-10-13T20:58:54.743Z,78.90
2022-10-13T21:01:23.059Z,79.09
2022-10-13T21:03:53.946Z,78.96
2022-10-13T21:06:22.936Z,78.84
2022-10-13T21:08:51.725Z,79.07
2022-10-13T21:11:20.571Z,79.21
2022-10-13T21:13:48.213Z,78.85
2022-10-13T21:16:18.712Z,78.85
2022-10-13T21:18:51.933Z,78.77
2022-10-13T21:21:21.748Z,78.76
2022-10-13T21:23:52.605Z,78.92
2022-10-13T21:26:22.277Z,79.01
2022-10-13T21:28:51.295Z,78.98
2022-10-13T21:31:22.874Z,79.30
2022-10-13T21:33:51.041Z,78.68
2022-10-13T21:36:28.024Z,78.91
2022-10-13T21:38:57.666Z,78.99
2022-10-13T21:41:25.602Z,79.00
2022-10-13T21:43:53.092Z,79.21
2022-10-13T21:46:23.482Z,79.09
2022-10-13T21:48:53.505Z,78.66
2022-10-13T21:51:22.070Z,78.88
2022-10-13T21:54:12.903Z,79.14
2022-10-13T21:56:41.104Z,79.13
2022-10-13T21:59:10.238Z,79.00
2022-10-13T22:01:37.356Z,79.21
2022-10-13T22:04:11.829Z,78.70
2022-10-13T22:06:39.069Z,78.82
2022-10-13T22:09:06.760Z,79.20
2022-10-13T22:11:36.429Z,79.45
2022-10-13T22:14:12.932Z,79.38
2022-10-13T22:16:43.079Z,79.18
2022-10-13T22:19:10.824Z,79.36
2022-10-13T22:21:42.155Z,80.13
2022-10-13T22:24:13.034Z,79.84
2022-10-13T22:26:41.555Z,79.72
2022-10-13T22:29:14.487Z,80.15
2022-10-13T22:31:43.407Z,79.57
2022-10-13T22:34:11.585Z,79.42
2022-10-13T22:36:43.662Z,79.68
2022-10-13T22:39:12.152Z,79.34
2022-10-13T22:41:39.415Z,79.79
2022-10-13T22:44:06.443Z,79.77
2022-10-13T22:46:35.893Z,79.92
2022-10-13T22:49:04.083Z,79.93
2022-10-13T22:51:33.647Z,80.44
2022-10-13T22:54:00.902Z,79.50
2022-10-13T22:56:30.390Z,80.47
2022-10-13T22:59:00.369Z,80.45
2022-10-13T23:01:27.860Z,80.55
2022-10-13T23:03:57.524Z,80.55
2022-10-13T23:06:31.766Z,80.50
2022-10-13T23:09:08.048Z,81.17
2022-10-13T23:11:36.012Z,81.03
2022-10-13T23:14:05.844Z,80.61
2022-10-13T23:16:32.895Z,80.68
2022-10-13T23:18:59.921Z,80.66
2022-10-13T23:21:28.775Z,80.25
2022-10-13T23:24:05.352Z,80.78
2022-10-13T23:26:34.082Z,80.49
2022-10-13T23:29:01.300Z,80.57
2022-10-13T23:31:29.143Z,80.30
2022-10-13T23:33:57.049Z,80.41
2022-10-13T23:36:26.675Z,80.28
2022-10-13T23:39:01.616Z,80.30
2022-10-13T23:41:29.492Z,80.60
2022-10-13T23:43:56.922Z,80.09
2022-10-13T23:46:24.681Z,79.80
2022-10-13T23:48:52.464Z,79.99
2022-10-13T23:51:21.974Z,80.05
2022-10-13T23:53:49.092Z,80.19
2022-10-13T23:56:17.544Z,79.96
2022-10-13T23:58:45.637Z,80.03
